sensor_id;sensor_type;location;lat;lon;timestamp;temperature;humidity
44136;DHT22;29798;51.064;13.734;2022-08-07T00:01:10;15.30;99.90
44136;DHT22;29798;51.064;13.734;2022-08-07T00:03:36;15.20;99.90
44136;DHT22;29798;51.064;13.734;2022-08-07T00:06:02;15.20;99.90
44136;DHT22;29798;51.064;13.734;2022-08-07T00:08:28;15.20;99.90
44136;DHT22;29798;51.064;13.734;2022-08-07T00:10:54;15.10;99.90
44136;DHT22;29798;51.064;13.734;2022-08-07T00:13:20;15.00;99.90
44136;DHT22;29798;51.064;13.734;2022-08-07T00:15:46;14.90;99.90
44136;DHT22;29798;51.064;13.734;2022-08-07T00:18:13;14.90;99.90
44136;DHT22;29798;51.064;13.734;2022-08-07T00:20:40;14.90;99.90
44136;DHT22;29798;51.064;13.734;2022-08-07T00:23:06;14.80;99.90
44136;DHT22;29798;51.064;13.734;2022-08-07T00:25:32;14.80;99.90
44136;DHT22;29798;51.064;13.734;2022-08-07T00:27:58;14.70;99.90
44136;DHT22;29798;51.064;13.734;2022-08-07T00:30:23;14.70;99.90
44136;DHT22;29798;51.064;13.734;2022-08-07T00:32:49;14.30;99.90
44136;DHT22;29798;51.064;13.734;2022-08-07T00:35:19;14.70;99.90
44136;DHT22;29798;51.064;13.734;2022-08-07T00:37:45;14.60;99.90
44136;DHT22;29798;51.064;13.734;2022-08-07T00:40:11;14.50;99.90
44136;DHT22;29798;51.064;13.734;2022-08-07T00:42:38;14.50;99.90
44136;DHT22;29798;51.064;13.734;2022-08-07T00:45:04;14.50;99.90
44136;DHT22;29798;51.064;13.734;2022-08-07T00:47:31;14.50;99.90
44136;DHT22;29798;51.064;13.734;2022-08-07T00:49:57;14.50;99.90
44136;DHT22;29798;51.064;13.734;2022-08-07T00:52:22;14.50;99.90
44136;DHT22;29798;51.064;13.734;2022-08-07T00:54:49;14.60;99.90
44136;DHT22;29798;51.064;13.734;2022-08-07T00:57:15;14.60;99.90
44136;DHT22;29798;51.064;13.734;2022-08-07T00:59:41;14.60;99.90
44136;DHT22;29798;51.064;13.734;2022-08-07T01:02:07;14.60;99.90
44136;DHT22;29798;51.064;13.734;2022-08-07T01:04:34;14.60;99.90
44136;DHT22;29798;51.064;13.734;2022-08-07T01:07:00;14.60;99.90
44136;DHT22;29798;51.064;13.734;2022-08-07T01:09:26;14.50;99.90
44136;DHT22;29798;51.064;13.734;2022-08-07T01:11:52;14.50;99.90
44136;DHT22;29798;51.064;13.734;2022-08-07T01:14:18;14.70;99.90
44136;DHT22;29798;51.064;13.734;2022-08-07T01:16:45;14.70;99.90
44136;DHT22;29798;51.064;13.734;2022-08-07T01:19:11;14.60;99.90
44136;DHT22;29798;51.064;13.734;2022-08-07T01:21:37;14.60;99.90
44136;DHT22;29798;51.064;13.734;2022-08-07T01:24:04;14.60;99.90
44136;DHT22;29798;51.064;13.734;2022-08-07T01:26:30;14.50;99.90
44136;DHT22;29798;51.064;13.734;2022-08-07T01:28:56;14.40;99.90
44136;DHT22;29798;51.064;13.734;2022-08-07T01:31:26;14.20;99.90
44136;DHT22;29798;51.064;13.734;2022-08-07T01:33:57;14.20;99.90
44136;DHT22;29798;51.064;13.734;2022-08-07T01:36:28;14.10;99.90
44136;DHT22;29798;51.064;13.734;2022-08-07T01:38:58;14.10;99.90
44136;DHT22;29798;51.064;13.734;2022-08-07T01:41:24;13.90;99.90
44136;DHT22;29798;51.064;13.734;2022-08-07T01:43:50;13.80;99.90
44136;DHT22;29798;51.064;13.734;2022-08-07T01:46:18;13.70;99.90
44136;DHT22;29798;51.064;13.734;2022-08-07T01:48:45;13.60;99.90
44136;DHT22;29798;51.064;13.734;2022-08-07T01:51:20;13.60;99.90
44136;DHT22;29798;51.064;13.734;2022-08-07T01:53:49;13.90;99.90
44136;DHT22;29798;51.064;13.734;2022-08-07T01:56:28;13.90;99.90
44136;DHT22;29798;51.064;13.734;2022-08-07T01:59:09;13.80;99.90
44136;DHT22;29798;51.064;13.734;2022-08-07T02:01:41;13.70;99.90
44136;DHT22;29798;51.064;13.734;2022-08-07T02:04:15;13.60;99.90
44136;DHT22;29798;51.064;13.734;2022-08-07T02:06:48;13.50;99.90
44136;DHT22;29798;51.064;13.734;2022-08-07T02:09:16;13.40;99.90
44136;DHT22;29798;51.064;13.734;2022-08-07T02:11:44;13.30;99.90
44136;DHT22;29798;51.064;13.734;2022-08-07T02:14:11;13.30;99.90
44136;DHT22;29798;51.064;13.734;2022-08-07T02:16:38;13.30;99.90
44136;DHT22;29798;51.064;13.734;2022-08-07T02:19:08;13.30;99.90
44136;DHT22;29798;51.064;13.734;2022-08-07T02:21:36;13.40;99.90
44136;DHT22;29798;51.064;13.734;2022-08-07T02:24:03;13.40;99.90
44136;DHT22;29798;51.064;13.734;2022-08-07T02:26:30;13.40;99.90
44136;DHT22;29798;51.064;13.734;2022-08-07T02:28:56;13.40;99.90
44136;DHT22;29798;51.064;13.734;2022-08-07T02:31:23;13.40;99.90
44136;DHT22;29798;51.064;13.734;2022-08-07T02:33:49;13.20;99.90
44136;DHT22;29798;51.064;13.734;2022-08-07T02:36:18;13.10;99.90
44136;DHT22;29798;51.064;13.734;2022-08-07T02:38:45;13.10;99.90
44136;DHT22;29798;51.064;13.734;2022-08-07T02:41:12;13.10;99.90
44136;DHT22;29798;51.064;13.734;2022-08-07T02:43:38;13.10;99.90
44136;DHT22;29798;51.064;13.734;2022-08-07T02:46:06;13.20;99.90
44136;DHT22;29798;51.064;13.734;2022-08-07T02:48:34;13.10;99.90
44136;DHT22;29798;51.064;13.734;2022-08-07T02:51:05;13.10;99.90
44136;DHT22;29798;51.064;13.734;2022-08-07T02:53:34;13.10;99.90
44136;DHT22;29798;51.064;13.734;2022-08-07T02:56:02;13.10;99.90
44136;DHT22;29798;51.064;13.734;2022-08-07T02:58:28;13.00;99.90
44136;DHT22;29798;51.064;13.734;2022-08-07T03:00:56;13.00;99.90
44136;DHT22;29798;51.064;13.734;2022-08-07T03:03:22;13.00;99.90
44136;DHT22;29798;51.064;13.734;2022-08-07T03:05:52;13.00;99.90
44136;DHT22;29798;51.064;13.734;2022-08-07T03:08:19;13.00;99.90
44136;DHT22;29798;51.064;13.734;2022-08-07T03:10:48;12.90;99.90
44136;DHT22;29798;51.064;13.734;2022-08-07T03:13:21;12.90;99.90
44136;DHT22;29798;51.064;13.734;2022-08-07T03:15:49;12.90;99.90
44136;DHT22;29798;51.064;13.734;2022-08-07T03:18:16;12.90;99.90
44136;DHT22;29798;51.064;13.734;2022-08-07T03:20:42;13.80;99.90
44136;DHT22;29798;51.064;13.734;2022-08-07T03:23:08;13.00;99.90
44136;DHT22;29798;51.064;13.734;2022-08-07T03:25:38;13.10;99.90
44136;DHT22;29798;51.064;13.734;2022-08-07T03:28:06;13.00;99.90
44136;DHT22;29798;51.064;13.734;2022-08-07T03:30:34;13.00;99.90
44136;DHT22;29798;51.064;13.734;2022-08-07T03:33:00;12.90;99.90
44136;DHT22;29798;51.064;13.734;2022-08-07T03:35:30;12.80;99.90
44136;DHT22;29798;51.064;13.734;2022-08-07T03:38:03;12.80;99.90
44136;DHT22;29798;51.064;13.734;2022-08-07T03:40:31;12.70;99.90
44136;DHT22;29798;51.064;13.734;2022-08-07T03:42:58;12.70;99.90
44136;DHT22;29798;51.064;13.734;2022-08-07T03:45:25;12.80;99.90
44136;DHT22;29798;51.064;13.734;2022-08-07T03:47:52;12.80;99.90
44136;DHT22;29798;51.064;13.734;2022-08-07T03:50:20;12.80;99.90
44136;DHT22;29798;51.064;13.734;2022-08-07T03:52:47;12.80;99.90
44136;DHT22;29798;51.064;13.734;2022-08-07T03:55:13;12.80;99.90
44136;DHT22;29798;51.064;13.734;2022-08-07T03:57:43;12.80;99.90
44136;DHT22;29798;51.064;13.734;2022-08-07T04:00:10;12.90;99.90
44136;DHT22;29798;51.064;13.734;2022-08-07T04:02:42;12.90;99.90
44136;DHT22;29798;51.064;13.734;2022-08-07T04:05:18;13.00;99.90
44136;DHT22;29798;51.064;13.734;2022-08-07T04:07:46;13.00;99.90
44136;DHT22;29798;51.064;13.734;2022-08-07T04:10:16;13.00;99.90
44136;DHT22;29798;51.064;13.734;2022-08-07T04:12:43;13.00;99.90
44136;DHT22;29798;51.064;13.734;2022-08-07T04:15:10;13.00;99.90
44136;DHT22;29798;51.064;13.734;2022-08-07T04:17:37;13.00;99.90
44136;DHT22;29798;51.064;13.734;2022-08-07T04:20:04;13.00;99.90
44136;DHT22;29798;51.064;13.734;2022-08-07T04:22:35;13.00;99.90
44136;DHT22;29798;51.064;13.734;2022-08-07T04:25:04;13.10;99.90
44136;DHT22;29798;51.064;13.734;2022-08-07T04:27:30;13.10;99.90
44136;DHT22;29798;51.064;13.734;2022-08-07T04:29:58;13.10;99.90
44136;DHT22;29798;51.064;13.734;2022-08-07T04:32:24;13.20;99.90
44136;DHT22;29798;51.064;13.734;2022-08-07T04:34:50;13.10;99.90
44136;DHT22;29798;51.064;13.734;2022-08-07T04:37:18;13.20;99.90
44136;DHT22;29798;51.064;13.734;2022-08-07T04:39:44;13.30;99.90
44136;DHT22;29798;51.064;13.734;2022-08-07T04:42:11;13.30;99.90
44136;DHT22;29798;51.064;13.734;2022-08-07T04:44:37;13.30;99.90
44136;DHT22;29798;51.064;13.734;2022-08-07T04:47:18;13.40;99.90
44136;DHT22;29798;51.064;13.734;2022-08-07T04:49:54;13.40;99.90
44136;DHT22;29798;51.064;13.734;2022-08-07T04:55:28;13.60;99.90
44136;DHT22;29798;51.064;13.734;2022-08-07T05:03:03;13.90;99.90
44136;DHT22;29798;51.064;13.734;2022-08-07T05:11:19;14.00;99.90
44136;DHT22;29798;51.064;13.734;2022-08-07T05:13:53;14.00;99.90
44136;DHT22;29798;51.064;13.734;2022-08-07T05:16:20;14.10;99.90
44136;DHT22;29798;51.064;13.734;2022-08-07T05:18:50;14.10;99.90
44136;DHT22;29798;51.064;13.734;2022-08-07T05:21:19;14.10;99.90
44136;DHT22;29798;51.064;13.734;2022-08-07T05:23:48;14.10;99.90
44136;DHT22;29798;51.064;13.734;2022-08-07T05:26:19;14.10;99.90
44136;DHT22;29798;51.064;13.734;2022-08-07T05:28:50;14.20;99.90
44136;DHT22;29798;51.064;13.734;2022-08-07T05:31:23;14.20;99.90
44136;DHT22;29798;51.064;13.734;2022-08-07T05:33:50;14.20;99.90
44136;DHT22;29798;51.064;13.734;2022-08-07T05:36:17;14.30;99.90
44136;DHT22;29798;51.064;13.734;2022-08-07T05:38:44;14.30;99.90
44136;DHT22;29798;51.064;13.734;2022-08-07T05:41:10;14.40;99.90
44136;DHT22;29798;51.064;13.734;2022-08-07T05:43:37;14.40;99.90
44136;DHT22;29798;51.064;13.734;2022-08-07T05:46:04;14.50;99.90
44136;DHT22;29798;51.064;13.734;2022-08-07T05:48:30;14.50;99.90
44136;DHT22;29798;51.064;13.734;2022-08-07T05:50:56;14.50;99.90
44136;DHT22;29798;51.064;13.734;2022-08-07T05:53:26;14.60;99.90
44136;DHT22;29798;51.064;13.734;2022-08-07T05:55:52;14.70;99.90
44136;DHT22;29798;51.064;13.734;2022-08-07T05:58:24;14.70;99.90
44136;DHT22;29798;51.064;13.734;2022-08-07T06:00:51;14.80;99.90
44136;DHT22;29798;51.064;13.734;2022-08-07T06:03:18;14.90;99.90
44136;DHT22;29798;51.064;13.734;2022-08-07T06:05:45;15.00;99.90
44136;DHT22;29798;51.064;13.734;2022-08-07T06:08:11;15.20;99.90
44136;DHT22;29798;51.064;13.734;2022-08-07T06:10:38;15.40;99.90
44136;DHT22;29798;51.064;13.734;2022-08-07T06:13:07;15.70;99.90
44136;DHT22;29798;51.064;13.734;2022-08-07T06:15:34;15.90;99.90
44136;DHT22;29798;51.064;13.734;2022-08-07T06:18:01;16.10;99.90
44136;DHT22;29798;51.064;13.734;2022-08-07T06:20:29;16.30;99.90
44136;DHT22;29798;51.064;13.734;2022-08-07T06:22:55;16.50;99.90
44136;DHT22;29798;51.064;13.734;2022-08-07T06:25:27;16.70;99.90
44136;DHT22;29798;51.064;13.734;2022-08-07T06:28:03;16.70;99.90
44136;DHT22;29798;51.064;13.734;2022-08-07T06:30:31;16.80;99.90
44136;DHT22;29798;51.064;13.734;2022-08-07T06:32:57;16.90;99.90
44136;DHT22;29798;51.064;13.734;2022-08-07T06:35:23;16.80;99.90
44136;DHT22;29798;51.064;13.734;2022-08-07T06:37:49;16.80;99.90
44136;DHT22;29798;51.064;13.734;2022-08-07T06:40:15;16.80;99.90
44136;DHT22;29798;51.064;13.734;2022-08-07T06:42:41;16.80;99.90
44136;DHT22;29798;51.064;13.734;2022-08-07T06:45:09;16.90;99.90
44136;DHT22;29798;51.064;13.734;2022-08-07T06:47:39;16.90;99.90
44136;DHT22;29798;51.064;13.734;2022-08-07T06:50:06;16.90;99.90
44136;DHT22;29798;51.064;13.734;2022-08-07T06:52:36;17.00;99.90
44136;DHT22;29798;51.064;13.734;2022-08-07T06:55:25;17.00;99.90
44136;DHT22;29798;51.064;13.734;2022-08-07T06:57:51;17.10;99.90
44136;DHT22;29798;51.064;13.734;2022-08-07T07:00:22;17.30;99.90
44136;DHT22;29798;51.064;13.734;2022-08-07T07:02:47;17.50;99.90
44136;DHT22;29798;51.064;13.734;2022-08-07T07:05:13;17.60;99.90
44136;DHT22;29798;51.064;13.734;2022-08-07T07:07:39;17.70;99.90
44136;DHT22;29798;51.064;13.734;2022-08-07T07:10:05;17.80;99.90
44136;DHT22;29798;51.064;13.734;2022-08-07T07:17:35;18.00;99.90
44136;DHT22;29798;51.064;13.734;2022-08-07T07:20:48;18.10;99.90
44136;DHT22;29798;51.064;13.734;2022-08-07T07:23:00;18.20;99.90
44136;DHT22;29798;51.064;13.734;2022-08-07T07:25:26;18.40;99.90
44136;DHT22;29798;51.064;13.734;2022-08-07T07:27:55;18.50;99.90
44136;DHT22;29798;51.064;13.734;2022-08-07T07:30:23;18.50;99.90
44136;DHT22;29798;51.064;13.734;2022-08-07T07:32:50;18.50;99.90
44136;DHT22;29798;51.064;13.734;2022-08-07T07:35:18;18.60;99.90
44136;DHT22;29798;51.064;13.734;2022-08-07T07:37:44;18.80;99.90
44136;DHT22;29798;51.064;13.734;2022-08-07T07:40:13;19.00;99.90
44136;DHT22;29798;51.064;13.734;2022-08-07T07:42:41;19.20;99.90
44136;DHT22;29798;51.064;13.734;2022-08-07T07:45:08;19.20;99.90
44136;DHT22;29798;51.064;13.734;2022-08-07T07:47:35;19.30;99.90
44136;DHT22;29798;51.064;13.734;2022-08-07T07:50:04;19.30;99.90
44136;DHT22;29798;51.064;13.734;2022-08-07T07:52:31;19.50;99.90
44136;DHT22;29798;51.064;13.734;2022-08-07T07:54:58;19.60;99.90
44136;DHT22;29798;51.064;13.734;2022-08-07T07:57:24;19.60;99.90
44136;DHT22;29798;51.064;13.734;2022-08-07T07:59:50;19.80;99.90
44136;DHT22;29798;51.064;13.734;2022-08-07T08:02:17;19.90;99.90
44136;DHT22;29798;51.064;13.734;2022-08-07T08:04:45;19.90;99.90
44136;DHT22;29798;51.064;13.734;2022-08-07T08:07:12;20.00;99.90
44136;DHT22;29798;51.064;13.734;2022-08-07T08:09:38;19.80;99.90
44136;DHT22;29798;51.064;13.734;2022-08-07T08:12:04;20.30;99.90
44136;DHT22;29798;51.064;13.734;2022-08-07T08:14:31;20.40;99.90
44136;DHT22;29798;51.064;13.734;2022-08-07T08:16:57;20.60;99.90
44136;DHT22;29798;51.064;13.734;2022-08-07T08:19:26;20.60;99.90
44136;DHT22;29798;51.064;13.734;2022-08-07T08:21:53;20.60;99.90
44136;DHT22;29798;51.064;13.734;2022-08-07T08:24:42;20.60;99.90
44136;DHT22;29798;51.064;13.734;2022-08-07T08:27:33;20.70;99.90
44136;DHT22;29798;51.064;13.734;2022-08-07T08:30:10;20.80;99.90
44136;DHT22;29798;51.064;13.734;2022-08-07T08:32:47;21.10;99.90
44136;DHT22;29798;51.064;13.734;2022-08-07T08:35:16;21.40;99.90
44136;DHT22;29798;51.064;13.734;2022-08-07T08:37:43;21.70;99.90
44136;DHT22;29798;51.064;13.734;2022-08-07T08:40:15;21.90;99.60
44136;DHT22;29798;51.064;13.734;2022-08-07T08:42:46;22.10;98.60
44136;DHT22;29798;51.064;13.734;2022-08-07T08:50:49;22.30;96.40
44136;DHT22;29798;51.064;13.734;2022-08-07T08:56:01;22.20;96.10
44136;DHT22;29798;51.064;13.734;2022-08-07T09:01:05;22.70;95.20
44136;DHT22;29798;51.064;13.734;2022-08-07T09:03:57;22.80;94.60
44136;DHT22;29798;51.064;13.734;2022-08-07T09:11:49;23.10;94.00
44136;DHT22;29798;51.064;13.734;2022-08-07T09:14:23;23.30;93.80
44136;DHT22;29798;51.064;13.734;2022-08-07T09:19:48;23.70;92.90
44136;DHT22;29798;51.064;13.734;2022-08-07T09:27:54;24.50;91.90
44136;DHT22;29798;51.064;13.734;2022-08-07T09:30:25;24.70;91.50
44136;DHT22;29798;51.064;13.734;2022-08-07T09:36:15;24.90;90.90
44136;DHT22;29798;51.064;13.734;2022-08-07T09:38:58;25.00;90.10
44136;DHT22;29798;51.064;13.734;2022-08-07T09:50:24;26.50;83.80
44136;DHT22;29798;51.064;13.734;2022-08-07T09:53:02;26.70;82.30
44136;DHT22;29798;51.064;13.734;2022-08-07T10:12:11;27.80;76.30
44136;DHT22;29798;51.064;13.734;2022-08-07T10:14:57;28.60;73.50
44136;DHT22;29798;51.064;13.734;2022-08-07T10:26:12;30.90;64.60
44136;DHT22;29798;51.064;13.734;2022-08-07T10:40:05;32.50;58.40
44136;DHT22;29798;51.064;13.734;2022-08-07T10:42:39;32.20;58.90
44136;DHT22;29798;51.064;13.734;2022-08-07T10:50:46;31.50;58.00
44136;DHT22;29798;51.064;13.734;2022-08-07T11:04:45;32.00;57.40
44136;DHT22;29798;51.064;13.734;2022-08-07T11:07:08;31.90;57.50
44136;DHT22;29798;51.064;13.734;2022-08-07T11:09:43;32.30;57.00
44136;DHT22;29798;51.064;13.734;2022-08-07T11:12:18;32.40;56.20
44136;DHT22;29798;51.064;13.734;2022-08-07T11:14:49;32.30;55.90
44136;DHT22;29798;51.064;13.734;2022-08-07T11:17:25;32.20;55.70
44136;DHT22;29798;51.064;13.734;2022-08-07T11:19:57;32.60;55.50
44136;DHT22;29798;51.064;13.734;2022-08-07T11:22:30;33.30;54.50
44136;DHT22;29798;51.064;13.734;2022-08-07T11:25:05;33.40;54.00
44136;DHT22;29798;51.064;13.734;2022-08-07T11:27:53;33.20;53.30
44136;DHT22;29798;51.064;13.734;2022-08-07T11:30:21;32.90;53.90
44136;DHT22;29798;51.064;13.734;2022-08-07T11:32:55;32.70;54.20
44136;DHT22;29798;51.064;13.734;2022-08-07T11:35:27;33.10;54.20
44136;DHT22;29798;51.064;13.734;2022-08-07T11:37:57;33.90;53.70
44136;DHT22;29798;51.064;13.734;2022-08-07T11:40:35;34.50;52.20
44136;DHT22;29798;51.064;13.734;2022-08-07T12:02:41;35.10;50.10
44136;DHT22;29798;51.064;13.734;2022-08-07T12:08:22;35.90;49.80
44136;DHT22;29798;51.064;13.734;2022-08-07T12:16:29;36.10;48.50
44136;DHT22;29798;51.064;13.734;2022-08-07T12:22:07;36.60;48.70
44136;DHT22;29798;51.064;13.734;2022-08-07T12:35:03;36.10;48.40
44136;DHT22;29798;51.064;13.734;2022-08-07T12:37:29;35.90;48.90
44136;DHT22;29798;51.064;13.734;2022-08-07T12:39:55;36.30;48.30
44136;DHT22;29798;51.064;13.734;2022-08-07T12:42:26;36.40;48.60
44136;DHT22;29798;51.064;13.734;2022-08-07T12:44:53;36.60;47.60
44136;DHT22;29798;51.064;13.734;2022-08-07T12:52:59;37.00;47.60
44136;DHT22;29798;51.064;13.734;2022-08-07T12:58:02;37.40;47.10
44136;DHT22;29798;51.064;13.734;2022-08-07T13:00:45;37.90;47.00
44136;DHT22;29798;51.064;13.734;2022-08-07T13:08:53;39.40;45.10
44136;DHT22;29798;51.064;13.734;2022-08-07T13:11:36;39.30;44.60
44136;DHT22;29798;51.064;13.734;2022-08-07T13:22:49;38.90;44.90
44136;DHT22;29798;51.064;13.734;2022-08-07T13:25:19;39.50;44.60
44136;DHT22;29798;51.064;13.734;2022-08-07T13:27:54;40.30;44.10
44136;DHT22;29798;51.064;13.734;2022-08-07T13:30:23;40.90;43.70
44136;DHT22;29798;51.064;13.734;2022-08-07T13:42:48;41.40;42.50
44136;DHT22;29798;51.064;13.734;2022-08-07T13:45:14;41.60;42.60
44136;DHT22;29798;51.064;13.734;2022-08-07T13:47:41;41.30;42.40
44136;DHT22;29798;51.064;13.734;2022-08-07T13:50:07;40.90;42.60
44136;DHT22;29798;51.064;13.734;2022-08-07T13:52:38;40.30;42.70
44136;DHT22;29798;51.064;13.734;2022-08-07T13:55:07;39.60;43.40
44136;DHT22;29798;51.064;13.734;2022-08-07T13:57:37;39.60;43.50
44136;DHT22;29798;51.064;13.734;2022-08-07T14:00:04;40.30;43.40
44136;DHT22;29798;51.064;13.734;2022-08-07T14:02:37;41.20;42.40
44136;DHT22;29798;51.064;13.734;2022-08-07T14:05:07;41.20;42.60
44136;DHT22;29798;51.064;13.734;2022-08-07T14:07:41;41.10;42.50
44136;DHT22;29798;51.064;13.734;2022-08-07T14:10:09;41.30;42.90
44136;DHT22;29798;51.064;13.734;2022-08-07T14:12:39;42.00;42.10
44136;DHT22;29798;51.064;13.734;2022-08-07T14:15:59;42.20;41.80
44136;DHT22;29798;51.064;13.734;2022-08-07T14:18:28;42.80;41.20
44136;DHT22;29798;51.064;13.734;2022-08-07T14:20:53;42.80;41.00
44136;DHT22;29798;51.064;13.734;2022-08-07T14:23:46;42.10;41.20
44136;DHT22;29798;51.064;13.734;2022-08-07T14:26:21;41.00;41.80
44136;DHT22;29798;51.064;13.734;2022-08-07T14:28:49;40.50;42.50
44136;DHT22;29798;51.064;13.734;2022-08-07T14:31:15;40.70;42.70
44136;DHT22;29798;51.064;13.734;2022-08-07T14:33:41;41.60;41.90
44136;DHT22;29798;51.064;13.734;2022-08-07T14:36:07;41.80;41.50
44136;DHT22;29798;51.064;13.734;2022-08-07T14:38:33;42.10;41.50
44136;DHT22;29798;51.064;13.734;2022-08-07T14:41:00;42.30;41.30
44136;DHT22;29798;51.064;13.734;2022-08-07T14:43:32;43.00;40.60
44136;DHT22;29798;51.064;13.734;2022-08-07T14:45:59;42.40;40.80
44136;DHT22;29798;51.064;13.734;2022-08-07T14:48:29;42.60;40.60
44136;DHT22;29798;51.064;13.734;2022-08-07T14:51:00;42.80;40.70
44136;DHT22;29798;51.064;13.734;2022-08-07T14:53:30;42.40;40.60
44136;DHT22;29798;51.064;13.734;2022-08-07T14:56:01;42.50;40.70
44136;DHT22;29798;51.064;13.734;2022-08-07T14:58:30;42.40;40.40
44136;DHT22;29798;51.064;13.734;2022-08-07T15:00:56;42.40;40.70
44136;DHT22;29798;51.064;13.734;2022-08-07T15:03:25;42.70;40.30
44136;DHT22;29798;51.064;13.734;2022-08-07T15:05:51;43.60;40.00
44136;DHT22;29798;51.064;13.734;2022-08-07T15:08:37;43.70;39.40
44136;DHT22;29798;51.064;13.734;2022-08-07T15:11:09;43.50;39.50
44136;DHT22;29798;51.064;13.734;2022-08-07T15:13:46;43.60;39.30
44136;DHT22;29798;51.064;13.734;2022-08-07T15:16:13;43.00;39.10
44136;DHT22;29798;51.064;13.734;2022-08-07T15:18:43;43.80;38.90
44136;DHT22;29798;51.064;13.734;2022-08-07T15:21:35;43.30;39.10
44136;DHT22;29798;51.064;13.734;2022-08-07T15:24:00;43.00;39.50
44136;DHT22;29798;51.064;13.734;2022-08-07T15:26:36;42.80;39.40
44136;DHT22;29798;51.064;13.734;2022-08-07T15:29:05;43.10;39.40
44136;DHT22;29798;51.064;13.734;2022-08-07T15:31:33;43.00;39.10
44136;DHT22;29798;51.064;13.734;2022-08-07T15:34:00;42.80;39.10
44136;DHT22;29798;51.064;13.734;2022-08-07T15:36:27;43.30;40.10
44136;DHT22;29798;51.064;13.734;2022-08-07T15:38:53;42.40;40.20
44136;DHT22;29798;51.064;13.734;2022-08-07T15:41:23;42.10;39.60
44136;DHT22;29798;51.064;13.734;2022-08-07T15:43:58;41.90;40.80
44136;DHT22;29798;51.064;13.734;2022-08-07T15:46:28;42.00;39.80
44136;DHT22;29798;51.064;13.734;2022-08-07T15:48:55;41.90;40.10
44136;DHT22;29798;51.064;13.734;2022-08-07T15:51:24;42.30;40.00
44136;DHT22;29798;51.064;13.734;2022-08-07T15:53:52;42.40;40.00
44136;DHT22;29798;51.064;13.734;2022-08-07T15:56:22;42.00;39.70
44136;DHT22;29798;51.064;13.734;2022-08-07T15:58:57;42.20;39.70
44136;DHT22;29798;51.064;13.734;2022-08-07T16:01:25;42.40;39.60
44136;DHT22;29798;51.064;13.734;2022-08-07T16:03:53;42.40;39.50
44136;DHT22;29798;51.064;13.734;2022-08-07T16:06:26;41.10;39.60
44136;DHT22;29798;51.064;13.734;2022-08-07T16:09:04;41.20;40.30
44136;DHT22;29798;51.064;13.734;2022-08-07T16:23:04;41.70;39.90
44136;DHT22;29798;51.064;13.734;2022-08-07T16:34:05;41.90;39.80
44136;DHT22;29798;51.064;13.734;2022-08-07T16:36:41;41.70;40.10
44136;DHT22;29798;51.064;13.734;2022-08-07T16:42:35;42.00;40.10
44136;DHT22;29798;51.064;13.734;2022-08-07T17:05:26;40.40;40.90
44136;DHT22;29798;51.064;13.734;2022-08-07T17:07:59;40.30;41.40
44136;DHT22;29798;51.064;13.734;2022-08-07T17:10:30;40.20;41.10
44136;DHT22;29798;51.064;13.734;2022-08-07T17:13:04;40.00;41.20
44136;DHT22;29798;51.064;13.734;2022-08-07T17:18:43;39.60;42.00
44136;DHT22;29798;51.064;13.734;2022-08-07T17:21:21;38.90;42.50
44136;DHT22;29798;51.064;13.734;2022-08-07T17:29:11;37.60;43.80
44136;DHT22;29798;51.064;13.734;2022-08-07T17:34:33;37.50;43.80
44136;DHT22;29798;51.064;13.734;2022-08-07T17:37:03;37.40;44.00
44136;DHT22;29798;51.064;13.734;2022-08-07T17:39:37;37.10;44.20
44136;DHT22;29798;51.064;13.734;2022-08-07T17:45:16;35.30;45.90
44136;DHT22;29798;51.064;13.734;2022-08-07T17:50:43;36.10;45.50
44136;DHT22;29798;51.064;13.734;2022-08-07T17:56:07;35.80;45.70
44136;DHT22;29798;51.064;13.734;2022-08-07T17:58:39;35.40;46.00
44136;DHT22;29798;51.064;13.734;2022-08-07T18:01:09;35.20;46.20
44136;DHT22;29798;51.064;13.734;2022-08-07T18:03:43;34.90;46.50
44136;DHT22;29798;51.064;13.734;2022-08-07T18:06:13;34.60;46.70
44136;DHT22;29798;51.064;13.734;2022-08-07T18:13:48;32.60;49.40
44136;DHT22;29798;51.064;13.734;2022-08-07T18:18:57;31.10;50.60
44136;DHT22;29798;51.064;13.734;2022-08-07T18:21:37;30.00;52.00
44136;DHT22;29798;51.064;13.734;2022-08-07T18:32:07;25.80;58.70
44136;DHT22;29798;51.064;13.734;2022-08-07T18:35:13;25.30;59.50
44136;DHT22;29798;51.064;13.734;2022-08-07T18:40:53;24.30;62.70
44136;DHT22;29798;51.064;13.734;2022-08-07T18:43:34;23.90;63.40
44136;DHT22;29798;51.064;13.734;2022-08-07T18:46:03;23.60;64.30
44136;DHT22;29798;51.064;13.734;2022-08-07T18:56:44;22.80;66.80
44136;DHT22;29798;51.064;13.734;2022-08-07T19:07:56;22.20;69.30
44136;DHT22;29798;51.064;13.734;2022-08-07T19:10:28;22.10;70.00
44136;DHT22;29798;51.064;13.734;2022-08-07T19:15:42;21.90;71.20
44136;DHT22;29798;51.064;13.734;2022-08-07T19:23:58;21.50;72.70
44136;DHT22;29798;51.064;13.734;2022-08-07T19:26:34;21.30;73.30
44136;DHT22;29798;51.064;13.734;2022-08-07T19:29:03;21.30;73.70
44136;DHT22;29798;51.064;13.734;2022-08-07T19:31:45;21.20;74.20
44136;DHT22;29798;51.064;13.734;2022-08-07T19:34:14;21.10;74.50
44136;DHT22;29798;51.064;13.734;2022-08-07T19:36:43;21.10;75.50
44136;DHT22;29798;51.064;13.734;2022-08-07T19:39:12;21.00;75.90
44136;DHT22;29798;51.064;13.734;2022-08-07T19:41:39;20.90;76.10
44136;DHT22;29798;51.064;13.734;2022-08-07T19:44:07;20.70;76.10
44136;DHT22;29798;51.064;13.734;2022-08-07T19:46:40;20.70;76.20
44136;DHT22;29798;51.064;13.734;2022-08-07T19:49:13;20.70;77.00
44136;DHT22;29798;51.064;13.734;2022-08-07T19:51:40;20.60;77.10
44136;DHT22;29798;51.064;13.734;2022-08-07T19:54:07;20.70;77.50
44136;DHT22;29798;51.064;13.734;2022-08-07T19:56:35;20.50;77.90
44136;DHT22;29798;51.064;13.734;2022-08-07T19:59:25;20.40;78.30
44136;DHT22;29798;51.064;13.734;2022-08-07T20:01:53;20.30;78.40
44136;DHT22;29798;51.064;13.734;2022-08-07T20:04:20;20.20;79.30
44136;DHT22;29798;51.064;13.734;2022-08-07T20:06:51;20.20;79.10
44136;DHT22;29798;51.064;13.734;2022-08-07T20:09:18;20.20;79.30
44136;DHT22;29798;51.064;13.734;2022-08-07T20:11:46;20.10;80.10
44136;DHT22;29798;51.064;13.734;2022-08-07T20:14:16;20.00;80.20
44136;DHT22;29798;51.064;13.734;2022-08-07T20:16:54;20.00;80.50
44136;DHT22;29798;51.064;13.734;2022-08-07T20:19:21;19.90;80.90
44136;DHT22;29798;51.064;13.734;2022-08-07T20:21:49;19.80;81.20
44136;DHT22;29798;51.064;13.734;2022-08-07T20:24:17;19.80;81.50